Time;durP1;ratioP1;P1;durP2;ratioP2;P2;SDS_P1;SDS_P2;PMS_P1;PMS_P2;Temp;Humidity;BMP_temperature;BMP_pressure;BME280_temperature;BME280_humidity;BME280_pressure;Samples;Min_cycle;Max_cycle;Signal;HPM_P1;HPM_P2
2022/06/03 00:04:19;;;;;;;3.03;2.00;;;;;;;16.87;45.82;98182.44;8455769;28;20224;-76
2022/06/03 00:08:50;;;;;;;2.90;1.80;;;;;;;16.76;46.01;98180.53;8474818;28;20217;-75
2022/06/03 00:12:59;;;;;;;3.37;1.97;;;;;;;16.83;45.87;98173.13;8481114;28;20229;-76
2022/06/03 00:17:12;;;;;;;1.93;1.77;;;;;;;16.72;45.95;98177.25;8484092;28;20221;-76
2022/06/03 00:21:21;;;;;;;2.23;2.00;;;;;;;16.55;46.69;98186.22;8484052;28;20400;-76
2022/06/03 00:25:42;;;;;;;4.70;2.00;;;;;;;16.55;46.22;98185.38;8483473;28;20388;-75
2022/06/03 00:29:58;;;;;;;3.03;1.77;;;;;;;16.55;46.48;98174.94;8483717;28;20226;-76
2022/06/03 00:34:12;;;;;;;4.23;1.80;;;;;;;16.53;46.57;98177.63;8483017;28;20217;-76
2022/06/03 00:38:43;;;;;;;1.90;1.80;;;;;;;16.47;46.58;98170.19;8483249;28;20237;-75
2022/06/03 00:43:03;;;;;;;2.47;1.80;;;;;;;16.52;46.94;98175.94;8478170;28;20221;-75
2022/06/03 00:47:17;;;;;;;2.50;1.97;;;;;;;16.51;47.11;98182.13;8483302;28;20236;-75
2022/06/03 00:51:55;;;;;;;2.33;1.70;;;;;;;16.36;47.64;98180.50;8483039;28;20225;-75
2022/06/03 00:56:21;;;;;;;4.27;2.20;;;;;;;16.36;47.64;98172.66;8476681;28;20546;-75
2022/06/03 01:00:26;;;;;;;2.43;2.07;;;;;;;16.31;47.67;98164.28;8448712;28;20225;-75
2022/06/03 01:04:44;;;;;;;2.33;1.70;;;;;;;16.23;47.66;98159.53;8448989;28;20226;-76
2022/06/03 01:09:11;;;;;;;2.60;1.63;;;;;;;16.17;48.06;98152.94;8448753;28;20424;-76
2022/06/03 01:13:34;;;;;;;3.47;2.20;;;;;;;16.10;48.23;98148.22;8445806;28;20241;-76
2022/06/03 01:17:45;;;;;;;3.40;1.90;;;;;;;16.08;48.60;98142.25;8448332;28;20233;-75
2022/06/03 01:21:57;;;;;;;5.73;1.83;;;;;;;16.08;48.41;98137.03;8448434;28;20230;-76
2022/06/03 01:26:13;;;;;;;2.27;1.93;;;;;;;16.09;48.54;98136.94;8448205;28;20399;-76
2022/06/03 01:30:21;;;;;;;3.67;1.90;;;;;;;16.10;48.11;98138.59;8447971;28;20423;-76
2022/06/03 01:34:33;;;;;;;3.53;2.00;;;;;;;16.14;48.35;98134.84;8447649;28;20225;-75
2022/06/03 01:38:51;;;;;;;2.00;1.80;;;;;;;16.12;48.21;98141.09;8447754;28;20233;-76
2022/06/03 01:43:14;;;;;;;4.23;1.70;;;;;;;15.94;48.60;98132.69;8447611;28;20218;-76
2022/06/03 01:47:56;;;;;;;2.90;1.90;;;;;;;15.94;48.61;98138.75;8447636;28;20229;-76
2022/06/03 01:52:34;;;;;;;2.10;1.90;;;;;;;15.86;48.94;98148.84;8444836;28;20408;-76
2022/06/03 01:57:01;;;;;;;2.77;2.00;;;;;;;15.92;48.80;98145.84;8444530;28;20218;-76
2022/06/03 02:01:16;;;;;;;3.03;2.10;;;;;;;15.79;48.75;98142.31;8444086;28;20230;-76
2022/06/03 02:05:35;;;;;;;2.90;2.30;;;;;;;15.79;48.53;98142.31;8447184;28;20312;-76
2022/06/03 02:10:05;;;;;;;6.47;2.20;;;;;;;15.82;47.67;98148.19;8446919;28;20229;-76
2022/06/03 02:14:53;;;;;;;4.30;1.90;;;;;;;15.74;47.38;98145.19;8440962;28;20575;-76
2022/06/03 02:19:17;;;;;;;2.17;1.87;;;;;;;15.62;47.54;98143.34;8446776;28;20226;-76
2022/06/03 02:23:51;;;;;;;2.40;1.63;;;;;;;15.61;47.45;98142.50;8446808;28;20418;-76
2022/06/03 02:28:27;;;;;;;5.30;1.60;;;;;;;15.66;46.93;98134.38;8446592;28;20222;-76
2022/06/03 02:33:02;;;;;;;2.03;1.70;;;;;;;15.58;47.46;98131.41;8446234;28;20230;-76
2022/06/03 02:37:16;;;;;;;3.40;1.80;;;;;;;15.45;47.83;98132.16;8446611;28;20222;-76
2022/06/03 02:41:34;;;;;;;1.80;1.70;;;;;;;15.47;47.91;98129.47;8446489;28;20428;-76
2022/06/03 02:45:59;;;;;;;1.73;1.40;;;;;;;15.54;47.43;98124.72;8446365;28;20225;-76
2022/06/03 02:50:24;;;;;;;1.60;1.40;;;;;;;15.52;47.75;98131.81;8447062;28;20437;-76
2022/06/03 02:54:53;;;;;;;1.97;1.80;;;;;;;15.56;48.19;98133.28;8446044;28;20521;-76
2022/06/03 02:59:18;;;;;;;3.63;1.90;;;;;;;15.49;48.87;98124.16;8446283;28;20228;-76
2022/06/03 03:03:45;;;;;;;1.80;1.70;;;;;;;15.50;48.82;98124.06;8447875;28;20236;-76
2022/06/03 03:07:59;;;;;;;3.70;2.13;;;;;;;15.42;49.16;98119.31;8452486;28;20233;-76
2022/06/03 03:12:35;;;;;;;2.77;2.20;;;;;;;15.53;49.08;98123.84;8452449;28;20233;-76
2022/06/03 03:16:48;;;;;;;2.20;2.00;;;;;;;15.49;49.37;98119.75;8452164;28;20229;-76
2022/06/03 03:21:12;;;;;;;2.60;2.03;;;;;;;15.40;49.55;98123.78;8452351;28;20228;-76
2022/06/03 03:25:42;;;;;;;2.97;1.87;;;;;;;15.38;49.72;98122.19;8452122;28;20418;-76
2022/06/03 03:29:53;;;;;;;3.37;2.10;;;;;;;15.38;49.45;98127.41;8465388;28;20218;-76
2022/06/03 03:34:06;;;;;;;3.90;2.20;;;;;;;15.43;49.51;98135.81;8451947;28;20230;-76
2022/06/03 03:38:34;;;;;;;2.83;1.97;;;;;;;15.40;49.52;98133.38;8451782;28;20230;-76
2022/06/03 03:42:52;;;;;;;3.10;2.20;;;;;;;15.44;49.53;98148.75;8451421;28;20218;-76
2022/06/03 03:47:17;;;;;;;3.30;2.17;;;;;;;15.33;49.65;98145.13;8451439;28;20233;-76
2022/06/03 03:51:28;;;;;;;4.27;1.90;;;;;;;15.41;49.91;98146.34;8451202;28;20240;-76
2022/06/03 03:56:06;;;;;;;4.00;2.30;;;;;;;15.32;50.42;98140.84;8451069;28;20214;-76
2022/06/03 04:00:30;;;;;;;2.33;2.13;;;;;;;15.36;50.13;98139.72;8431102;28;20233;-76
2022/06/03 04:05:01;;;;;;;4.37;2.57;;;;;;;15.40;50.15;98144.66;8450674;28;20222;-76
2022/06/03 04:09:20;;;;;;;5.40;2.00;;;;;;;15.42;49.84;98148.03;8450776;28;20290;-76
2022/06/03 04:13:58;;;;;;;2.27;2.07;;;;;;;15.44;49.95;98140.94;8449494;28;20229;-76
2022/06/03 04:18:29;;;;;;;2.00;1.80;;;;;;;15.56;49.27;98148.94;8450470;28;20556;-76
2022/06/03 04:22:47;;;;;;;5.00;2.17;;;;;;;15.65;49.40;98143.16;8450153;28;20221;-76
2022/06/03 04:27:10;;;;;;;3.00;2.17;;;;;;;15.71;49.86;98144.56;8450187;28;20237;-76
2022/06/03 04:31:48;;;;;;;3.17;2.00;;;;;;;15.79;49.53;98135.31;8450152;28;20237;-76
2022/06/03 04:36:37;;;;;;;6.80;2.37;;;;;;;15.92;49.36;98139.78;8445525;28;20218;-76
2022/06/03 04:41:20;;;;;;;6.53;3.00;;;;;;;16.03;49.59;98153.00;8452062;28;20217;-76
2022/06/03 04:45:58;;;;;;;3.80;2.73;;;;;;;16.16;49.45;98139.97;8466027;28;20218;-75
2022/06/03 04:50:40;;;;;;;4.07;2.43;;;;;;;16.32;49.61;98150.28;8449325;28;20234;-76
2022/06/03 04:55:40;;;;;;;3.20;2.50;;;;;;;16.42;49.19;98139.13;8426226;28;20528;-75
2022/06/03 05:00:19;;;;;;;2.93;2.40;;;;;;;16.59;48.91;98137.19;8448629;28;20226;-76
2022/06/03 05:04:58;;;;;;;5.23;2.30;;;;;;;16.76;47.98;98126.44;8482239;28;20217;-75
2022/06/03 05:09:42;;;;;;;3.40;2.30;;;;;;;16.91;48.32;98119.38;8482873;28;20244;-77
2022/06/03 05:14:31;;;;;;;3.93;2.20;;;;;;;16.97;47.27;98116.31;8475877;28;20225;-76
2022/06/03 05:19:04;;;;;;;7.47;2.20;;;;;;;17.07;47.37;98113.09;8480593;28;20288;-75
2022/06/03 05:23:28;;;;;;;4.27;2.30;;;;;;;17.03;46.80;98109.00;8480220;28;20231;-75
2022/06/03 05:27:58;;;;;;;3.33;1.83;;;;;;;17.10;47.10;98110.28;8480870;28;20223;-75
2022/06/03 05:32:25;;;;;;;2.40;1.80;;;;;;;16.88;46.90;98114.34;8481917;28;20224;-74
2022/06/03 05:37:00;;;;;;;2.80;1.60;;;;;;;17.04;46.74;98098.44;8447645;28;20225;-75
2022/06/03 05:42:23;;;;;;;12.00;1.80;;;;;;;17.13;46.31;98103.03;8447774;28;20237;-74
2022/06/03 05:45:56;;;;;;;6.70;2.27;;;;;;;17.02;46.37;98102.09;8447471;28;20230;-75
2022/06/03 05:50:03;;;;;;;3.83;1.90;;;;;;;17.18;46.21;98100.94;8447500;28;20292;-75
2022/06/03 05:54:13;;;;;;;4.70;2.00;;;;;;;17.26;45.94;98112.66;8447505;28;20230;-75
2022/06/03 05:58:28;;;;;;;11.20;2.70;;;;;;;17.32;46.64;98107.00;8447362;28;20222;-75
2022/06/03 06:02:35;;;;;;;8.73;1.90;;;;;;;17.47;45.69;98113.75;8447052;28;20218;-75
2022/06/03 06:06:42;;;;;;;2.23;1.63;;;;;;;17.72;45.29;98112.84;8447275;28;20232;-75
2022/06/03 06:10:52;;;;;;;3.63;1.70;;;;;;;17.58;45.33;98106.00;8447156;28;20454;-75
2022/06/03 06:15:19;;;;;;;3.50;1.80;;;;;;;17.96;45.20;98112.09;8446892;28;20234;-75
2022/06/03 06:19:35;;;;;;;5.40;1.97;;;;;;;18.07;44.79;98111.34;8446751;28;20218;-75
2022/06/03 06:23:45;;;;;;;5.03;1.73;;;;;;;17.82;45.08;98118.31;8446892;28;20218;-75
2022/06/03 06:28:01;;;;;;;5.47;1.90;;;;;;;17.94;45.47;98112.19;8446930;28;20245;-75
2022/06/03 06:32:26;;;;;;;1.77;1.50;;;;;;;17.88;45.61;98102.19;8446645;28;20233;-75
2022/06/03 06:36:53;;;;;;;2.90;1.70;;;;;;;18.00;45.63;98091.75;8446565;28;20229;-75
2022/06/03 06:41:08;;;;;;;5.80;1.80;;;;;;;18.27;46.01;98094.97;8429528;28;20232;-75
2022/06/03 06:45:21;;;;;;;3.40;2.00;;;;;;;18.43;45.78;98096.44;8453474;28;20282;-76
2022/06/03 06:49:33;;;;;;;5.67;1.53;;;;;;;18.53;45.09;98092.19;8469962;28;20418;-75
2022/06/03 06:53:40;;;;;;;3.47;1.70;;;;;;;18.39;45.24;98088.00;8453194;28;20237;-75
2022/06/03 06:57:46;;;;;;;2.87;1.60;;;;;;;18.99;44.36;98091.34;8453112;28;20221;-75
2022/06/03 07:01:55;;;;;;;7.07;1.90;;;;;;;19.26;43.25;98100.69;8452775;28;20233;-76
2022/06/03 07:06:05;;;;;;;4.03;1.90;;;;;;;19.37;43.54;98094.59;8452641;28;20537;-77
2022/06/03 07:10:12;;;;;;;5.40;1.50;;;;;;;19.62;43.50;98099.56;8452731;28;20226;-75
2022/06/03 07:14:20;;;;;;;5.23;2.17;;;;;;;19.87;42.78;98095.03;8452302;28;20233;-75
2022/06/03 07:22:56;;;;;;;1.87;1.53;;;;;;;20.19;41.26;98084.53;8452330;28;20416;-76
2022/06/03 07:27:04;;;;;;;3.63;1.70;;;;;;;19.90;41.81;98073.75;8452302;28;20230;-76
2022/06/03 07:31:14;;;;;;;4.43;1.80;;;;;;;20.16;41.96;98066.34;8451922;28;20238;-76
2022/06/03 07:35:22;;;;;;;2.70;1.50;;;;;;;20.53;41.67;98059.88;8451954;28;20447;-76
2022/06/03 07:39:39;;;;;;;3.93;1.77;;;;;;;20.73;42.00;98061.66;8451644;28;20420;-75
2022/06/03 07:43:45;;;;;;;2.80;1.70;;;;;;;20.95;40.79;98060.69;8451622;28;20534;-76
2022/06/03 07:47:50;;;;;;;5.60;2.13;;;;;;;21.12;41.00;98053.97;8451333;28;20505;-76
2022/06/03 07:51:55;;;;;;;3.40;2.00;;;;;;;21.28;40.09;98046.41;8450539;28;20231;-76
2022/06/03 07:55:59;;;;;;;2.00;1.70;;;;;;;22.06;39.91;98043.91;8451170;28;20245;-79
2022/06/03 08:00:06;;;;;;;3.20;1.97;;;;;;;21.84;39.60;98042.41;8451110;28;20221;-76
2022/06/03 08:04:09;;;;;;;7.27;1.93;;;;;;;21.39;40.62;98048.09;8450712;28;20220;-76
2022/06/03 08:12:40;;;;;;;3.47;1.90;;;;;;;22.15;40.15;98026.44;8448412;28;20233;-75
2022/06/03 08:16:44;;;;;;;4.13;1.80;;;;;;;22.43;40.14;98027.41;8450322;28;20230;-74
2022/06/03 08:20:51;;;;;;;4.17;2.07;;;;;;;22.28;39.60;98028.84;8450168;28;20232;-75
2022/06/03 08:24:57;;;;;;;5.57;2.10;;;;;;;22.31;40.49;98020.63;8450423;28;20511;-76
2022/06/03 08:29:09;;;;;;;3.13;1.73;;;;;;;23.16;39.64;98020.69;8450194;28;20222;-76
2022/06/03 08:33:14;;;;;;;5.57;2.00;;;;;;;23.59;38.56;98006.81;8449320;28;20574;-75
2022/06/03 08:37:20;;;;;;;6.23;2.23;;;;;;;23.67;38.35;97994.66;8449670;28;20420;-77
2022/06/03 08:41:34;;;;;;;3.70;1.90;;;;;;;23.96;37.96;97990.00;8483017;28;20537;-76
2022/06/03 08:45:46;;;;;;;6.47;2.20;;;;;;;23.81;38.03;97994.16;8450181;28;20225;-77
2022/06/03 08:49:58;;;;;;;3.83;2.00;;;;;;;24.14;38.18;97991.78;8451304;28;20248;-75
2022/06/03 08:54:04;;;;;;;3.50;2.20;;;;;;;23.84;37.67;97990.38;8450174;28;20225;-81
2022/06/03 08:58:15;;;;;;;2.53;1.97;;;;;;;24.42;37.47;97983.72;8442862;28;20428;-76
2022/06/03 09:02:25;;;;;;;3.80;2.07;;;;;;;24.80;36.87;97987.78;8447430;28;20229;-77
2022/06/03 09:06:37;;;;;;;8.80;2.20;;;;;;;24.86;36.80;97987.16;8448401;28;20233;-76
2022/06/03 09:10:43;;;;;;;7.97;2.20;;;;;;;25.49;36.61;97978.00;8448921;28;20222;-76
2022/06/03 09:14:49;;;;;;;3.47;1.97;;;;;;;25.12;36.56;97981.81;8448384;28;20235;-77
2022/06/03 09:18:58;;;;;;;6.90;2.20;;;;;;;24.94;36.87;97983.72;8448409;28;20233;-77
2022/06/03 09:23:05;;;;;;;6.80;2.47;;;;;;;25.58;36.64;97983.31;8448461;28;20397;-77
2022/06/03 09:27:10;;;;;;;4.10;2.10;;;;;;;26.10;36.18;97977.72;8448167;28;20229;-77
2022/06/03 09:31:13;;;;;;;6.40;2.20;;;;;;;26.02;35.52;97972.44;8448166;28;20427;-76
2022/06/03 09:35:29;;;;;;;5.03;2.17;;;;;;;25.97;35.79;97972.94;8481282;28;20224;-77
2022/06/03 09:39:33;;;;;;;4.37;2.10;;;;;;;26.26;34.61;97968.94;8481623;28;20229;-77
2022/06/03 09:43:38;;;;;;;4.47;2.13;;;;;;;26.39;35.02;97949.81;8467256;28;20234;-78
2022/06/03 09:47:43;;;;;;;3.77;2.30;;;;;;;26.36;35.09;97952.81;8476809;28;20244;-75
2022/06/03 09:52:07;;;;;;;5.20;2.30;;;;;;;26.24;35.18;97957.66;8478572;28;20240;-76
2022/06/03 09:56:17;;;;;;;6.37;2.20;;;;;;;27.09;34.52;97952.63;8481176;28;20229;-76
2022/06/03 10:00:22;;;;;;;5.13;2.00;;;;;;;27.48;34.75;97948.28;8481005;28;20225;-76
2022/06/03 10:04:25;;;;;;;4.07;1.80;;;;;;;27.01;33.83;97949.16;8480771;28;20218;-76
2022/06/03 10:12:48;;;;;;;3.57;1.90;;;;;;;27.61;33.83;97937.06;8481032;28;20227;-76
2022/06/03 10:12:56;;;;;;;5.33;2.23;;;;;;;27.46;33.79;97929.03;8480156;28;20232;-76
2022/06/03 10:16:58;;;;;;;5.30;1.93;;;;;;;27.62;33.76;97925.41;8480727;28;20231;-76
2022/06/03 10:21:31;;;;;;;3.07;1.80;;;;;;;28.39;31.82;97921.78;8480728;28;20428;-76
2022/06/03 10:25:36;;;;;;;5.27;1.93;;;;;;;28.36;31.81;97911.47;8480326;28;20226;-76
2022/06/03 10:29:48;;;;;;;5.33;2.00;;;;;;;28.28;32.10;97897.22;8480581;28;20239;-76
2022/06/03 10:33:54;;;;;;;5.27;1.90;;;;;;;27.69;33.10;97903.22;8480449;28;20428;-76
2022/06/03 10:37:59;;;;;;;5.03;2.30;;;;;;;28.03;33.10;97899.31;8480352;28;20231;-76
2022/06/03 10:42:13;;;;;;;5.03;2.10;;;;;;;27.91;32.57;97903.41;8479852;28;20234;-76
2022/06/03 10:46:18;;;;;;;4.47;1.97;;;;;;;27.75;33.20;97890.22;8480073;28;20233;-76
2022/06/03 10:50:31;;;;;;;4.53;2.00;;;;;;;28.17;32.58;97875.56;8480222;28;20246;-76
2022/06/03 11:03:24;;;;;;;4.50;2.17;;;;;;;28.08;32.16;97857.03;8480071;28;20233;-76
2022/06/03 11:07:30;;;;;;;4.20;1.90;;;;;;;28.58;32.36;97838.69;8479655;28;20228;-76
2022/06/03 11:11:43;;;;;;;4.90;1.60;;;;;;;28.43;31.83;97832.50;8479880;28;20228;-76
2022/06/03 11:15:48;;;;;;;4.40;1.60;;;;;;;28.84;31.93;97832.84;8479735;28;20231;-76
2022/06/03 11:19:53;;;;;;;5.37;1.80;;;;;;;28.40;31.25;97822.22;8479882;28;20542;-76
2022/06/03 11:23:58;;;;;;;6.53;2.13;;;;;;;28.64;31.59;97827.28;8480643;28;20279;-75
2022/06/03 11:28:03;;;;;;;7.70;1.83;;;;;;;29.20;30.68;97831.19;8485984;28;20534;-76
2022/06/03 11:32:10;;;;;;;7.70;1.87;;;;;;;28.89;31.77;97818.94;8485894;28;20231;-75
2022/06/03 11:36:17;;;;;;;5.33;2.60;;;;;;;28.04;32.79;97833.59;8483218;28;20228;-74
2022/06/03 11:40:23;;;;;;;5.80;2.00;;;;;;;28.87;30.96;97815.66;8484373;28;20228;-74
2022/06/03 11:44:35;;;;;;;4.77;2.00;;;;;;;28.68;31.03;97814.41;8477162;28;20230;-76
2022/06/03 11:48:41;;;;;;;4.23;1.67;;;;;;;29.59;29.56;97820.03;8484837;28;20225;-75
2022/06/03 11:52:44;;;;;;;5.93;2.07;;;;;;;29.51;30.17;97828.19;8479724;28;20248;-75
2022/06/03 11:56:47;;;;;;;6.60;1.83;;;;;;;28.93;30.10;97832.72;8484560;28;20539;-76
2022/06/03 12:00:53;;;;;;;5.40;1.70;;;;;;;28.93;31.18;97832.72;8484065;28;20220;-77
2022/06/03 12:05:01;;;;;;;7.30;1.83;;;;;;;28.41;31.64;97830.03;8484499;28;20229;-78
2022/06/03 12:09:21;;;;;;;6.67;2.07;;;;;;;28.01;32.63;97841.97;8484679;28;20229;-77
2022/06/03 12:13:28;;;;;;;3.67;1.87;;;;;;;28.20;32.42;97829.97;8450086;28;20544;-76
2022/06/03 12:17:33;;;;;;;7.87;1.90;;;;;;;28.21;32.37;97819.09;8450438;28;20240;-77
2022/06/03 12:22:16;;;;;;;4.53;1.83;;;;;;;28.47;31.84;97823.13;8449971;28;20222;-78
2022/06/03 12:26:39;;;;;;;4.33;1.80;;;;;;;29.06;31.04;97832.88;8449945;28;20229;-77
2022/06/03 12:30:49;;;;;;;5.63;1.90;;;;;;;28.95;30.94;97815.50;8450141;28;20251;-78
2022/06/03 12:34:52;;;;;;;4.10;1.70;;;;;;;28.53;31.67;97811.75;8449816;28;20234;-78
2022/06/03 12:44:00;;;;;;;3.07;1.87;;;;;;;28.95;32.10;97822.69;8388335;27;20565;-79
2022/06/03 12:48:47;;;;;;;3.90;1.70;;;;;;;29.14;32.43;97818.63;8376036;28;20236;-78
2022/06/03 12:52:51;;;;;;;4.97;1.80;;;;;;;28.19;32.49;97818.47;8327004;28;20285;-78
2022/06/03 12:56:59;;;;;;;4.30;1.60;;;;;;;28.00;33.48;97806.53;8332245;28;20226;-79
2022/06/03 13:01:03;;;;;;;5.07;1.97;;;;;;;27.82;33.09;97809.53;8342287;28;20235;-79
2022/06/03 13:05:09;;;;;;;3.20;1.60;;;;;;;27.50;34.01;97805.34;8342565;28;20232;-79
2022/06/03 13:13:43;;;;;;;6.13;2.40;;;;;;;27.97;32.59;97774.97;8368140;28;20290;-76
2022/06/03 13:17:59;;;;;;;4.33;1.80;;;;;;;28.10;32.35;97782.28;8375024;28;20226;-77
2022/06/03 13:22:07;;;;;;;5.80;2.00;;;;;;;28.58;32.63;97764.09;8374766;28;20229;-78
2022/06/03 13:26:48;;;;;;;3.70;1.67;;;;;;;28.45;31.92;97775.38;8374794;28;20223;-78
2022/06/03 13:31:16;;;;;;;2.80;1.60;;;;;;;28.83;31.60;97761.09;8374392;28;20226;-78
2022/06/03 13:35:23;;;;;;;4.40;1.80;;;;;;;28.35;32.67;97766.88;8374449;28;20241;-78
2022/06/03 13:40:12;;;;;;;4.20;1.90;;;;;;;28.68;31.95;97763.78;8376585;28;20226;-77
2022/06/03 13:44:21;;;;;;;6.90;2.00;;;;;;;28.46;32.02;97753.06;8339838;28;20232;-77
2022/06/03 13:48:32;;;;;;;3.00;1.93;;;;;;;28.65;32.50;97754.34;8332006;28;20556;-77
2022/06/03 13:52:57;;;;;;;3.97;1.77;;;;;;;28.51;31.82;97749.03;8316573;28;20258;-78
2022/06/03 13:57:16;;;;;;;4.83;2.03;;;;;;;28.74;31.98;97749.72;8297590;28;20228;-77
2022/06/03 14:01:25;;;;;;;6.03;1.90;;;;;;;28.32;32.11;97737.94;8286271;28;20238;-77
2022/06/03 14:05:32;;;;;;;3.13;2.00;;;;;;;28.31;32.06;97732.81;8299436;28;20231;-77
2022/06/03 14:09:38;;;;;;;4.50;1.93;;;;;;;28.24;32.14;97720.25;8311487;28;20231;-76
2022/06/03 14:13:48;;;;;;;4.63;1.70;;;;;;;28.16;32.75;97719.50;8302500;28;20239;-74
2022/06/03 14:17:58;;;;;;;3.10;1.70;;;;;;;28.07;32.91;97710.81;8309609;28;20323;-75
2022/06/03 14:22:03;;;;;;;3.73;1.70;;;;;;;28.22;32.16;97708.97;8288518;28;20240;-75
2022/06/03 14:26:15;;;;;;;4.43;2.10;;;;;;;28.47;32.44;97717.44;8298527;28;20240;-75
2022/06/03 14:30:21;;;;;;;3.70;2.23;;;;;;;28.21;32.54;97714.47;8306159;28;20228;-76
2022/06/03 14:34:28;;;;;;;2.27;1.70;;;;;;;28.07;32.40;97708.97;8309181;28;20225;-75
2022/06/03 14:38:35;;;;;;;2.93;1.90;;;;;;;28.06;33.31;97702.00;8295056;28;20229;-76
2022/06/03 14:42:41;;;;;;;2.50;1.80;;;;;;;28.08;33.08;97707.97;8292505;28;20387;-76
2022/06/03 14:46:50;;;;;;;5.30;1.90;;;;;;;27.96;34.47;97713.94;8332272;28;20237;-76
2022/06/03 14:50:55;;;;;;;3.77;2.03;;;;;;;27.90;34.10;97726.16;8350154;28;20235;-76
2022/06/03 14:55:02;;;;;;;2.40;1.60;;;;;;;27.96;34.88;97720.09;8350076;28;20235;-76
2022/06/03 14:59:09;;;;;;;4.60;1.80;;;;;;;27.87;34.39;97715.84;8349994;28;20530;-76
2022/06/03 15:03:20;;;;;;;5.57;2.20;;;;;;;27.90;36.85;97714.69;8348870;28;20236;-76
2022/06/03 15:07:26;;;;;;;2.40;2.00;;;;;;;27.99;36.34;97718.91;8316687;28;20236;-75
2022/06/03 15:11:32;;;;;;;3.33;1.77;;;;;;;28.11;36.45;97708.63;8316866;28;20232;-76
2022/06/03 15:15:37;;;;;;;3.53;1.90;;;;;;;28.22;37.14;97713.47;8316635;28;20239;-77
2022/06/03 15:19:42;;;;;;;5.00;1.90;;;;;;;28.07;36.63;97705.50;8316599;28;20246;-76
2022/06/03 15:23:45;;;;;;;3.77;2.10;;;;;;;28.12;36.67;97692.47;8316361;28;20413;-76
2022/06/03 15:27:51;;;;;;;2.47;1.80;;;;;;;28.10;36.92;97694.47;8316301;28;20239;-76
2022/06/03 15:31:56;;;;;;;6.67;2.33;;;;;;;28.03;37.14;97690.91;8316182;28;20554;-76
2022/06/03 15:36:01;;;;;;;2.60;1.80;;;;;;;28.12;36.79;97678.31;8316087;28;20234;-76
2022/06/03 15:40:06;;;;;;;2.97;1.80;;;;;;;27.97;35.89;97671.19;8315958;28;20238;-76
2022/06/03 15:44:08;;;;;;;3.63;2.00;;;;;;;27.85;36.75;97659.31;8315761;28;20230;-76
2022/06/03 15:48:18;;;;;;;3.70;1.83;;;;;;;28.10;35.39;97645.72;8315691;28;20231;-76
2022/06/03 15:52:24;;;;;;;7.27;2.20;;;;;;;27.78;35.61;97645.09;8315633;28;20295;-76
2022/06/03 15:56:47;;;;;;;2.43;1.70;;;;;;;27.58;36.08;97629.72;8347972;28;20241;-77
2022/06/03 16:01:01;;;;;;;8.67;2.37;;;;;;;27.41;36.47;97625.59;8348050;28;20308;-76
2022/06/03 16:05:09;;;;;;;6.07;1.93;;;;;;;27.19;37.11;97621.97;8347947;28;20234;-76
2022/06/03 16:09:24;;;;;;;6.10;1.70;;;;;;;27.07;36.74;97635.75;8347879;28;20294;-76
2022/06/03 16:13:34;;;;;;;6.03;2.60;;;;;;;26.84;37.60;97646.38;8347487;28;20530;-77
2022/06/03 16:17:48;;;;;;;2.53;1.50;;;;;;;26.25;39.47;97664.69;8347350;28;20293;-76
2022/06/03 16:22:04;;;;;;;3.57;1.73;;;;;;;25.93;43.98;97693.03;8347616;28;20438;-76
2022/06/03 16:26:20;;;;;;;2.07;1.60;;;;;;;25.43;47.10;97692.34;8347306;28;20224;-76
2022/06/03 16:30:26;;;;;;;5.03;1.70;;;;;;;24.51;48.74;97707.53;8339204;28;20225;-75
2022/06/03 16:34:41;;;;;;;4.80;2.03;;;;;;;23.95;53.34;97733.63;8347570;28;20224;-76
2022/06/03 16:38:52;;;;;;;5.20;2.20;;;;;;;23.49;55.60;97765.53;8347368;28;20227;-76
2022/06/03 16:43:01;;;;;;;10.33;2.40;;;;;;;24.03;55.26;97793.66;8346927;28;20229;-76
2022/06/03 16:47:10;;;;;;;4.73;2.17;;;;;;;24.02;55.54;97794.66;8347126;28;20221;-76
2022/06/03 16:51:14;;;;;;;6.53;2.20;;;;;;;23.95;55.20;97828.81;8347189;28;20223;-76
2022/06/03 16:55:27;;;;;;;5.83;2.13;;;;;;;23.87;55.49;97840.19;8347169;28;20241;-76
2022/06/03 16:59:31;;;;;;;6.60;2.40;;;;;;;23.73;58.05;97864.53;8346768;28;20228;-76
2022/06/03 17:03:41;;;;;;;4.83;2.07;;;;;;;23.44;59.33;97873.53;8346758;28;20235;-76
2022/06/03 17:07:48;;;;;;;15.63;3.60;;;;;;;23.05;61.93;97875.63;8346820;28;20234;-76
2022/06/03 17:11:52;;;;;;;9.77;3.70;;;;;;;22.73;63.99;97863.69;8346958;28;20231;-75
2022/06/03 17:15:55;;;;;;;9.23;3.43;;;;;;;22.81;64.38;97877.00;8346765;28;20551;-76
2022/06/03 17:20:09;;;;;;;12.87;3.57;;;;;;;22.76;63.53;97873.97;8346775;28;20299;-76
2022/06/03 17:24:23;;;;;;;7.77;3.20;;;;;;;22.67;64.27;97880.13;8346562;28;20235;-76
2022/06/03 17:28:59;;;;;;;6.37;3.33;;;;;;;22.63;63.65;97879.56;8342126;28;20227;-76
2022/06/03 17:33:08;;;;;;;9.43;3.33;;;;;;;22.58;63.76;97877.41;8352562;28;20231;-75
2022/06/03 17:37:31;;;;;;;6.13;3.30;;;;;;;22.44;64.62;97867.31;8352679;28;20228;-76
2022/06/03 17:41:40;;;;;;;6.77;3.00;;;;;;;22.60;63.74;97862.25;8352209;28;20224;-76
2022/06/03 17:45:55;;;;;;;5.43;3.03;;;;;;;22.59;63.28;97862.38;8352435;28;20231;-76
2022/06/03 17:50:00;;;;;;;7.47;3.33;;;;;;;22.41;64.22;97859.69;8352274;28;20224;-76
2022/06/03 17:58:49;;;;;;;6.43;3.20;;;;;;;22.41;64.78;97857.88;8351871;28;20235;-75
2022/06/03 18:03:26;;;;;;;7.97;3.80;;;;;;;22.49;63.63;97856.34;8351832;28;20239;-75
2022/06/03 18:07:41;;;;;;;6.47;3.20;;;;;;;22.42;64.11;97850.78;8341490;28;20230;-75
2022/06/03 18:11:46;;;;;;;6.67;3.33;;;;;;;22.35;63.96;97836.50;8351505;28;20232;-76
2022/06/03 18:15:58;;;;;;;6.33;2.80;;;;;;;22.31;64.13;97829.88;8351212;28;20422;-76
2022/06/03 18:20:11;;;;;;;7.87;3.20;;;;;;;22.23;64.46;97838.47;8351384;28;20604;-76
2022/06/03 18:24:23;;;;;;;4.63;2.87;;;;;;;22.28;63.75;97843.38;8351156;28;20237;-76
2022/06/03 18:29:04;;;;;;;6.40;3.40;;;;;;;22.19;64.88;97837.09;8350658;28;20224;-75
2022/06/03 18:33:13;;;;;;;5.07;3.10;;;;;;;22.19;64.63;97845.03;8350837;28;20231;-76
2022/06/03 18:37:42;;;;;;;7.20;3.00;;;;;;;22.17;64.80;97854.88;8350822;28;20235;-76
2022/06/03 18:41:55;;;;;;;7.00;3.00;;;;;;;22.10;65.17;97844.06;8344002;28;20578;-76
2022/06/03 18:46:13;;;;;;;6.20;3.40;;;;;;;22.03;65.79;97830.63;8350506;28;20234;-76
2022/06/03 18:50:24;;;;;;;5.57;3.00;;;;;;;22.23;64.53;97841.94;8350508;28;20224;-76
2022/06/03 18:54:36;;;;;;;5.67;3.13;;;;;;;21.93;64.07;97840.38;8349953;28;20227;-75
2022/06/03 18:59:06;;;;;;;8.10;4.27;;;;;;;21.65;66.00;97837.66;8350087;28;20532;-76
2022/06/03 19:03:17;;;;;;;6.83;3.93;;;;;;;21.84;65.35;97828.88;8350010;28;20242;-76
2022/06/03 19:07:35;;;;;;;6.67;3.13;;;;;;;21.75;65.02;97828.91;8341174;28;20227;-74
2022/06/03 19:11:48;;;;;;;10.63;3.03;;;;;;;21.65;66.00;97837.66;8349727;28;20240;-76
2022/06/03 19:15:58;;;;;;;7.30;3.10;;;;;;;21.73;65.45;97841.41;8349655;28;20227;-75
2022/06/03 19:20:12;;;;;;;6.90;3.00;;;;;;;21.72;66.13;97831.81;8349381;28;20223;-75
2022/06/03 19:24:26;;;;;;;3.00;2.67;;;;;;;21.72;65.48;97845.00;8349278;28;20228;-76
2022/06/03 19:28:35;;;;;;;7.27;3.07;;;;;;;21.65;65.40;97860.56;8348961;28;20230;-76
2022/06/03 19:32:39;;;;;;;4.00;2.90;;;;;;;21.61;66.36;97865.28;8349150;28;20542;-75
2022/06/03 19:36:55;;;;;;;5.33;2.80;;;;;;;21.59;66.12;97859.31;8349034;28;20226;-76
2022/06/03 19:41:18;;;;;;;5.20;3.10;;;;;;;21.61;66.12;97878.44;8348741;28;20241;-75
2022/06/03 19:45:41;;;;;;;5.47;3.63;;;;;;;21.58;66.32;97888.44;8348553;28;20236;-76
2022/06/03 19:49:59;;;;;;;4.77;3.17;;;;;;;21.55;66.66;97886.06;8315288;28;20231;-75
2022/06/03 19:54:14;;;;;;;5.30;2.80;;;;;;;21.58;66.43;97899.78;8315745;28;20235;-76
2022/06/03 19:58:19;;;;;;;4.83;3.33;;;;;;;21.58;66.51;97918.25;8315541;28;20225;-76
2022/06/03 20:02:30;;;;;;;6.57;3.70;;;;;;;21.57;66.19;97945.56;8339680;28;20243;-74
2022/06/03 20:06:37;;;;;;;4.63;3.63;;;;;;;21.49;67.21;97977.03;8348145;28;20343;-76
2022/06/03 20:10:54;;;;;;;6.30;3.30;;;;;;;21.49;66.88;97971.75;8348077;28;20247;-76
2022/06/03 20:15:05;;;;;;;5.60;3.27;;;;;;;21.44;66.68;97974.81;8347906;28;20243;-76
2022/06/03 20:19:15;;;;;;;7.17;4.30;;;;;;;21.43;66.38;97986.25;8347706;28;20224;-76
2022/06/03 20:23:30;;;;;;;8.80;5.83;;;;;;;21.35;67.58;97990.56;8347693;28;20649;-75
2022/06/03 20:27:43;;;;;;;5.63;4.07;;;;;;;21.32;68.42;97988.19;8347474;28;20228;-75
2022/06/03 20:31:49;;;;;;;8.07;3.70;;;;;;;21.19;68.04;97980.53;8347471;28;20240;-76
2022/06/03 20:36:01;;;;;;;7.90;3.77;;;;;;;21.37;66.73;97983.34;8347592;28;20426;-76